Time;durP1;ratioP1;P1;durP2;ratioP2;P2;SDS_P1;SDS_P2;PMS_P1;PMS_P2;Temp;Humidity;BMP_temperature;BMP_pressure;BME280_temperature;BME280_humidity;BME280_pressure;Samples;Min_cycle;Max_cycle;Signal;HPM_P1;HPM_P2
2022/08/03 00:02:11;;;;;;;19.23;17.90;;;20.30;99.90;;;;;;4877337;29;20973;-69
2022/08/03 00:04:38;;;;;;;18.50;17.50;;;20.30;99.90;;;;;;4877183;29;20472;-69
2022/08/03 00:07:04;;;;;;;17.53;16.43;;;20.30;99.90;;;;;;4876954;29;20452;-69
2022/08/03 00:09:31;;;;;;;17.17;16.17;;;20.20;99.90;;;;;;4877215;29;20548;-69
2022/08/03 00:11:59;;;;;;;18.20;17.20;;;20.20;99.90;;;;;;4877214;29;20464;-68
2022/08/03 00:14:26;;;;;;;19.00;17.90;;;20.20;99.90;;;;;;4877171;29;20459;-68
2022/08/03 00:16:52;;;;;;;20.10;18.93;;;20.20;99.90;;;;;;4877027;29;20487;-69
2022/08/03 00:19:19;;;;;;;19.97;18.13;;;20.20;99.90;;;;;;4876940;29;20456;-68
2022/08/03 00:21:46;;;;;;;20.40;19.30;;;20.20;99.90;;;;;;4877119;29;20464;-69
2022/08/03 00:24:12;;;;;;;18.63;17.37;;;20.20;99.90;;;;;;4877283;29;20460;-69
2022/08/03 00:26:39;;;;;;;18.27;17.23;;;20.10;99.90;;;;;;4877043;29;20463;-68
2022/08/03 02:58:03;;;;;;;20.17;18.77;;;18.70;99.90;;;;;;5140745;23;21018;-68
2022/08/03 03:00:31;;;;;;;19.67;18.50;;;18.70;99.90;;;;;;4928549;29;20506;-68
2022/08/03 03:02:59;;;;;;;20.37;18.90;;;18.70;99.90;;;;;;4921315;29;20466;-69
2022/08/03 03:05:26;;;;;;;21.27;19.80;;;18.70;99.90;;;;;;4915786;29;20469;-69
2022/08/03 03:07:54;;;;;;;21.13;19.77;;;18.60;99.90;;;;;;4925075;29;20965;-68
2022/08/03 03:10:22;;;;;;;20.20;19.10;;;18.60;99.90;;;;;;4915369;29;20490;-70
2022/08/03 03:12:50;;;;;;;20.87;19.57;;;18.60;99.90;;;;;;4914889;29;20525;-69
2022/08/03 03:15:19;;;;;;;20.80;19.20;;;18.60;99.90;;;;;;4915250;29;20454;-69
2022/08/03 03:17:47;;;;;;;19.30;18.10;;;18.60;99.90;;;;;;4915155;29;20821;-69
2022/08/03 03:20:15;;;;;;;20.40;19.20;;;18.60;99.90;;;;;;4915255;29;20455;-68
2022/08/03 03:22:43;;;;;;;20.30;19.10;;;18.60;99.90;;;;;;4915025;29;20450;-67
2022/08/03 03:25:11;;;;;;;19.37;18.37;;;18.50;99.90;;;;;;4915083;29;20473;-68
2022/08/03 03:27:39;;;;;;;20.20;18.63;;;18.50;99.90;;;;;;4914850;29;20502;-68
2022/08/03 03:30:06;;;;;;;19.10;18.03;;;18.50;99.90;;;;;;4914769;29;21288;-68
2022/08/03 03:32:35;;;;;;;19.40;18.40;;;18.40;99.90;;;;;;4914801;29;20466;-68
2022/08/03 03:35:04;;;;;;;19.90;18.80;;;18.50;99.90;;;;;;4914760;29;20518;-68
2022/08/03 03:37:31;;;;;;;20.40;19.10;;;18.40;99.90;;;;;;4914823;29;20484;-68
2022/08/03 03:39:58;;;;;;;21.23;19.90;;;18.40;99.90;;;;;;4915185;29;20457;-68
2022/08/03 03:42:25;;;;;;;20.53;19.23;;;18.40;99.90;;;;;;4914427;29;20827;-68
2022/08/03 03:44:52;;;;;;;19.10;18.10;;;18.40;99.90;;;;;;4914640;29;20447;-68
2022/08/03 03:47:19;;;;;;;20.27;18.90;;;18.30;99.90;;;;;;4914501;29;20469;-68
2022/08/03 03:49:47;;;;;;;20.00;18.80;;;18.30;99.90;;;;;;4914635;29;20497;-68
2022/08/03 03:52:13;;;;;;;18.93;17.93;;;18.30;99.90;;;;;;4914744;29;20459;-68
2022/08/03 03:54:41;;;;;;;19.73;18.73;;;18.30;99.90;;;;;;4914293;29;20457;-68
2022/08/03 03:57:09;;;;;;;19.47;18.30;;;18.40;99.90;;;;;;4913981;29;21064;-68
2022/08/03 03:59:38;;;;;;;20.00;18.93;;;18.30;99.90;;;;;;4914009;29;20461;-68
2022/08/03 04:02:05;;;;;;;20.83;19.53;;;18.30;99.90;;;;;;4914549;29;20482;-68
2022/08/03 04:12:50;;;;;;;20.77;19.27;;;18.40;99.90;;;;;;4933358;29;20432;-68
2022/08/03 04:15:21;;;;;;;21.37;19.30;;;18.40;99.90;;;;;;4933243;29;20453;-69
2022/08/03 04:17:49;;;;;;;20.90;19.53;;;18.40;99.90;;;;;;4933242;29;20457;-69
2022/08/03 04:20:18;;;;;;;21.33;19.50;;;18.40;99.90;;;;;;4933536;29;20808;-69
2022/08/03 04:22:47;;;;;;;21.73;20.47;;;18.40;99.90;;;;;;4933239;29;20454;-69
2022/08/03 04:25:18;;;;;;;21.03;19.60;;;18.40;99.90;;;;;;4933392;29;20483;-69
2022/08/03 04:27:47;;;;;;;22.13;20.63;;;18.50;99.90;;;;;;4933346;29;20457;-68
2022/08/03 04:30:14;;;;;;;18.83;17.80;;;18.50;99.90;;;;;;4933130;29;20485;-70
2022/08/03 04:32:44;;;;;;;21.77;20.37;;;18.50;99.90;;;;;;4933305;29;20465;-68
2022/08/03 04:35:11;;;;;;;21.53;20.13;;;18.50;99.90;;;;;;4933304;29;20464;-68
2022/08/03 04:37:41;;;;;;;22.17;20.53;;;18.60;99.90;;;;;;4933266;29;20449;-68
2022/08/03 04:40:14;;;;;;;20.53;19.40;;;18.60;99.90;;;;;;4932969;29;20540;-69
2022/08/03 04:42:41;;;;;;;20.60;19.00;;;18.60;99.90;;;;;;4933504;29;20481;-67
2022/08/03 04:45:12;;;;;;;21.20;20.00;;;18.60;99.90;;;;;;4932737;29;20947;-68
2022/08/03 04:47:40;;;;;;;20.83;19.57;;;18.60;99.90;;;;;;4932993;29;20460;-68
2022/08/03 04:50:08;;;;;;;22.00;20.43;;;18.70;99.90;;;;;;4932909;29;20497;-69
2022/08/03 04:52:36;;;;;;;19.97;18.57;;;19.00;99.90;;;;;;4933138;29;20469;-68
2022/08/03 04:55:02;;;;;;;19.70;18.50;;;19.40;99.90;;;;;;4932711;29;20457;-69
2022/08/03 04:57:30;;;;;;;19.70;18.47;;;19.70;99.90;;;;;;4932586;29;20496;-69
2022/08/03 04:59:57;;;;;;;19.17;17.87;;;20.10;99.90;;;;;;4932897;29;20453;-70
2022/08/03 05:02:24;;;;;;;19.13;17.80;;;20.40;99.90;;;;;;4933059;29;20460;-71
2022/08/03 05:04:51;;;;;;;19.63;18.33;;;20.70;99.90;;;;;;4932667;29;20457;-69
2022/08/03 05:07:18;;;;;;;19.23;18.07;;;20.80;99.90;;;;;;4932724;29;20453;-69
2022/08/03 05:09:45;;;;;;;17.87;16.97;;;20.80;99.90;;;;;;4925467;29;20473;-69
2022/08/03 05:12:12;;;;;;;18.07;17.07;;;20.90;99.90;;;;;;4914113;29;20454;-69
2022/08/03 05:14:40;;;;;;;18.20;17.20;;;20.90;99.90;;;;;;4913934;29;20550;-72
2022/08/03 05:17:07;;;;;;;18.80;17.70;;;21.00;99.90;;;;;;4924583;29;20481;-72
2022/08/03 05:19:34;;;;;;;18.20;17.10;;;21.00;99.90;;;;;;4917587;29;20445;-73
2022/08/03 05:22:02;;;;;;;18.00;17.10;;;21.10;99.90;;;;;;4935930;29;20452;-73
2022/08/03 05:24:28;;;;;;;18.50;16.93;;;21.20;99.90;;;;;;4927063;29;20457;-73
2022/08/03 05:26:55;;;;;;;17.53;16.57;;;21.40;99.90;;;;;;4917241;29;20458;-72
2022/08/03 05:29:22;;;;;;;17.10;16.00;;;21.60;99.90;;;;;;4917097;29;20457;-72
2022/08/03 05:31:50;;;;;;;17.10;16.17;;;21.80;99.90;;;;;;4916882;29;20530;-72
2022/08/03 05:34:16;;;;;;;17.17;16.17;;;21.90;99.90;;;;;;4917104;29;20458;-72
2022/08/03 05:36:43;;;;;;;15.70;14.90;;;21.90;99.90;;;;;;4917073;29;20454;-72
2022/08/03 05:39:10;;;;;;;16.20;15.50;;;22.10;99.90;;;;;;4917034;29;20556;-73
2022/08/03 05:41:36;;;;;;;16.50;15.60;;;22.20;99.90;;;;;;4916841;29;20454;-72
2022/08/03 05:44:03;;;;;;;16.47;15.63;;;22.40;99.90;;;;;;4916889;29;20457;-72
2022/08/03 05:46:30;;;;;;;15.13;14.43;;;22.50;99.90;;;;;;4916895;29;20462;-73
2022/08/03 05:48:58;;;;;;;16.70;15.60;;;22.80;99.90;;;;;;4917228;29;20457;-73
2022/08/03 05:51:25;;;;;;;16.60;15.53;;;23.00;99.90;;;;;;4935450;29;20489;-73
2022/08/03 05:53:52;;;;;;;16.23;15.40;;;23.30;99.90;;;;;;4935552;29;20464;-74
2022/08/03 05:56:23;;;;;;;17.57;16.63;;;23.50;99.90;;;;;;4935108;29;21027;-73
2022/08/03 05:58:50;;;;;;;17.27;16.33;;;23.70;99.90;;;;;;4935364;29;20481;-73
2022/08/03 06:01:20;;;;;;;16.77;15.63;;;23.80;99.90;;;;;;4935327;29;20454;-72
2022/08/03 06:03:47;;;;;;;16.03;15.03;;;23.80;99.90;;;;;;4935418;29;20553;-72
2022/08/03 06:06:16;;;;;;;17.97;16.97;;;24.00;99.90;;;;;;4935792;29;20886;-72
2022/08/03 06:08:44;;;;;;;15.57;14.27;;;24.00;99.90;;;;;;4935552;29;20830;-73
2022/08/03 06:11:11;;;;;;;16.20;15.40;;;24.00;99.90;;;;;;4935036;29;20489;-73
2022/08/03 06:13:38;;;;;;;16.50;15.60;;;23.90;99.90;;;;;;4935346;29;20453;-74
2022/08/03 06:16:06;;;;;;;16.80;15.80;;;24.10;99.90;;;;;;4935334;29;20874;-74
2022/08/03 06:18:32;;;;;;;16.50;15.50;;;24.40;99.90;;;;;;4935743;29;20458;-74
2022/08/03 06:20:59;;;;;;;17.70;16.50;;;24.70;99.90;;;;;;4935046;29;20944;-73
2022/08/03 06:23:27;;;;;;;16.73;15.70;;;24.90;99.90;;;;;;4932074;29;20478;-73
2022/08/03 06:25:54;;;;;;;17.73;16.30;;;25.00;99.90;;;;;;4916103;29;20467;-74
2022/08/03 06:28:21;;;;;;;18.10;17.13;;;25.00;99.90;;;;;;4916185;29;20867;-73
2022/08/03 06:30:47;;;;;;;16.43;15.63;;;25.00;99.90;;;;;;4915972;29;20875;-71
2022/08/03 06:33:15;;;;;;;17.57;16.27;;;24.90;99.90;;;;;;4916042;29;20865;-74
2022/08/03 06:35:42;;;;;;;18.83;17.83;;;25.30;99.90;;;;;;4915768;29;20557;-73
2022/08/03 06:38:08;;;;;;;16.93;15.90;;;25.60;99.90;;;;;;4915798;29;20462;-74
2022/08/03 06:40:38;;;;;;;17.23;16.13;;;25.80;99.90;;;;;;4915868;29;20458;-72
2022/08/03 06:43:06;;;;;;;16.00;15.30;;;25.60;99.90;;;;;;4915636;29;20454;-73
2022/08/03 06:45:34;;;;;;;15.90;15.10;;;25.80;99.90;;;;;;4915844;29;20462;-73
2022/08/03 06:48:02;;;;;;;17.03;16.13;;;26.10;99.90;;;;;;4915625;29;20823;-74
2022/08/03 06:50:28;;;;;;;16.47;15.63;;;26.30;99.90;;;;;;4915834;29;20462;-73
2022/08/03 06:52:55;;;;;;;16.70;15.80;;;26.60;99.90;;;;;;4915638;29;20459;-72
2022/08/03 06:55:22;;;;;;;15.83;15.03;;;26.90;99.80;;;;;;4915636;29;20504;-74
2022/08/03 06:57:50;;;;;;;15.70;15.10;;;27.00;99.70;;;;;;4915069;29;20490;-73
2022/08/03 07:00:17;;;;;;;16.80;15.70;;;26.90;99.30;;;;;;4915577;29;20487;-73
2022/08/03 07:02:44;;;;;;;17.77;16.77;;;26.90;99.10;;;;;;4915178;29;20541;-72
2022/08/03 07:05:12;;;;;;;17.40;16.53;;;27.20;98.60;;;;;;4915515;29;20454;-72
2022/08/03 07:07:39;;;;;;;17.60;16.70;;;27.10;98.70;;;;;;4915172;29;20466;-73
2022/08/03 07:10:07;;;;;;;17.33;16.43;;;27.00;98.50;;;;;;4914859;29;20957;-73
2022/08/03 07:12:34;;;;;;;15.27;14.57;;;27.00;98.80;;;;;;4915087;29;21015;-73
2022/08/03 07:15:03;;;;;;;16.50;15.70;;;27.00;99.10;;;;;;4915318;29;20462;-73
2022/08/03 07:17:30;;;;;;;16.93;15.63;;;27.10;98.60;;;;;;4933870;29;20807;-74
2022/08/03 07:19:57;;;;;;;16.93;15.60;;;27.30;98.40;;;;;;4934256;29;20841;-74
2022/08/03 07:22:24;;;;;;;16.43;15.23;;;27.60;97.90;;;;;;4933819;29;20456;-74
2022/08/03 07:24:51;;;;;;;17.27;16.17;;;28.00;97.00;;;;;;4919818;29;20457;-73
2022/08/03 07:27:18;;;;;;;17.57;16.47;;;28.10;96.80;;;;;;4914879;29;20459;-73
2022/08/03 07:29:44;;;;;;;16.40;15.70;;;28.20;96.30;;;;;;4915231;29;20836;-73
2022/08/03 07:32:12;;;;;;;16.70;15.80;;;28.00;96.40;;;;;;4914847;29;20509;-74
2022/08/03 07:34:39;;;;;;;18.60;17.60;;;27.90;96.90;;;;;;4914735;29;20462;-74
2022/08/03 07:37:06;;;;;;;17.40;16.30;;;28.20;96.50;;;;;;4914839;29;20853;-73
2022/08/03 07:39:33;;;;;;;15.60;14.90;;;28.30;96.00;;;;;;4914724;29;20468;-73
2022/08/03 07:42:00;;;;;;;15.37;14.53;;;28.40;95.70;;;;;;4914935;29;20486;-73
2022/08/03 07:44:27;;;;;;;16.70;15.73;;;28.80;95.00;;;;;;4914437;29;20442;-74
2022/08/03 07:46:53;;;;;;;15.77;14.93;;;29.30;93.60;;;;;;4914294;29;20477;-74
2022/08/03 07:49:21;;;;;;;15.47;14.30;;;29.10;92.90;;;;;;4914563;29;20462;-74
2022/08/03 07:52:46;;;;;;;17.50;16.30;;;29.40;92.60;;;;;;4914364;29;20493;-75
2022/08/03 07:54:35;;;;;;;17.17;16.10;;;29.70;92.30;;;;;;4914154;29;20446;-73
2022/08/03 07:57:02;;;;;;;15.23;14.63;;;29.60;92.10;;;;;;4913915;29;20501;-74
2022/08/03 07:59:28;;;;;;;15.93;15.20;;;29.80;91.70;;;;;;4914532;29;20945;-74
2022/08/03 08:01:55;;;;;;;16.00;15.30;;;30.10;90.90;;;;;;4914670;29;20458;-73
2022/08/03 08:04:23;;;;;;;16.90;16.00;;;30.40;89.20;;;;;;4914227;29;20450;-74
2022/08/03 08:06:50;;;;;;;16.63;15.77;;;30.80;88.40;;;;;;4914248;29;20454;-74
2022/08/03 08:09:16;;;;;;;16.20;15.40;;;30.80;88.50;;;;;;4914395;29;20455;-74
2022/08/03 08:11:43;;;;;;;16.00;15.40;;;30.80;88.00;;;;;;4914445;29;20504;-74
2022/08/03 08:14:11;;;;;;;14.70;13.90;;;30.80;87.50;;;;;;4914664;29;20461;-75
2022/08/03 08:16:38;;;;;;;15.13;14.47;;;31.30;85.20;;;;;;4914436;29;20476;-74
2022/08/03 08:19:05;;;;;;;15.70;15.00;;;31.60;85.30;;;;;;4914025;29;20470;-74
2022/08/03 08:21:33;;;;;;;15.70;14.73;;;32.00;82.20;;;;;;4914362;29;20455;-75
2022/08/03 08:23:59;;;;;;;15.17;14.40;;;32.10;81.50;;;;;;4921797;29;20453;-74
2022/08/03 08:26:26;;;;;;;15.60;14.73;;;32.80;78.70;;;;;;4933629;29;20457;-75
2022/08/03 08:28:53;;;;;;;15.13;14.43;;;33.10;77.80;;;;;;4933175;29;20453;-74
2022/08/03 08:31:20;;;;;;;16.50;15.60;;;33.50;73.80;;;;;;4932807;29;20912;-75
2022/08/03 08:33:46;;;;;;;16.37;15.57;;;33.40;75.30;;;;;;4933417;29;20465;-74
2022/08/03 08:36:13;;;;;;;15.23;14.63;;;33.60;75.50;;;;;;4933329;29;20465;-75
2022/08/03 08:38:43;;;;;;;15.07;14.20;;;33.90;72.70;;;;;;4933126;29;20450;-75
2022/08/03 08:41:11;;;;;;;15.73;14.77;;;34.10;70.80;;;;;;4933089;29;20467;-74
2022/08/03 08:43:38;;;;;;;15.53;14.93;;;34.50;68.80;;;;;;4932945;29;20454;-74
2022/08/03 08:46:07;;;;;;;16.10;14.97;;;34.80;65.90;;;;;;4932975;29;20460;-74
2022/08/03 08:48:35;;;;;;;14.27;13.77;;;35.20;65.50;;;;;;4933055;29;20469;-74
2022/08/03 08:51:03;;;;;;;14.90;14.30;;;35.50;62.80;;;;;;4932846;29;20464;-75
2022/08/03 08:53:31;;;;;;;15.50;14.80;;;36.10;60.40;;;;;;4933059;29;20456;-74
2022/08/03 08:56:01;;;;;;;15.30;14.60;;;36.50;58.60;;;;;;4934951;29;20868;-75
2022/08/03 08:58:30;;;;;;;14.50;13.80;;;36.40;57.90;;;;;;4936643;29;20489;-74
2022/08/03 09:00:57;;;;;;;15.43;14.83;;;36.80;57.20;;;;;;4936820;29;20511;-74
2022/08/03 09:03:23;;;;;;;15.60;14.70;;;37.00;56.10;;;;;;4936070;29;20457;-74
2022/08/03 09:05:50;;;;;;;14.70;14.20;;;37.40;55.20;;;;;;4936083;29;20969;-74
2022/08/03 09:08:18;;;;;;;16.30;15.60;;;37.50;53.60;;;;;;4935457;29;20456;-75
2022/08/03 09:10:44;;;;;;;15.30;14.70;;;37.90;52.40;;;;;;4936386;29;20457;-75
2022/08/03 09:13:13;;;;;;;17.30;16.60;;;38.50;52.30;;;;;;4935934;29;20489;-75
2022/08/03 09:15:41;;;;;;;20.10;18.83;;;39.50;50.70;;;;;;4936032;29;20825;-75
2022/08/03 09:18:08;;;;;;;16.10;15.40;;;40.60;48.20;;;;;;4936217;29;20465;-74
2022/08/03 09:20:35;;;;;;;16.03;15.43;;;40.60;46.80;;;;;;4936197;29;20453;-75
2022/08/03 09:23:07;;;;;;;16.30;15.70;;;40.70;46.40;;;;;;4936170;29;20453;-75
2022/08/03 09:25:35;;;;;;;14.37;13.87;;;41.20;44.80;;;;;;4916731;29;20457;-75
2022/08/03 09:28:07;;;;;;;14.70;14.10;;;41.20;43.70;;;;;;4916869;29;20936;-75
2022/08/03 09:30:36;;;;;;;16.27;15.67;;;41.40;43.50;;;;;;4917115;29;20457;-75
2022/08/03 09:33:04;;;;;;;16.27;15.67;;;41.00;43.20;;;;;;4916682;29;21004;-75
2022/08/03 09:35:31;;;;;;;15.73;15.03;;;40.10;43.50;;;;;;4917087;29;20458;-75
2022/08/03 09:38:14;;;;;;;16.37;15.77;;;39.60;45.00;;;;;;4917081;29;20469;-75
2022/08/03 09:40:42;;;;;;;16.00;15.30;;;39.90;44.80;;;;;;4916884;29;20799;-76
2022/08/03 09:43:09;;;;;;;16.00;15.40;;;40.70;43.20;;;;;;4916812;29;20461;-76
2022/08/03 09:45:39;;;;;;;15.70;15.13;;;41.30;42.20;;;;;;4916378;29;20977;-74
2022/08/03 09:48:23;;;;;;;16.70;16.00;;;41.30;41.50;;;;;;4916760;29;20556;-75
2022/08/03 09:50:50;;;;;;;16.50;15.70;;;41.10;41.50;;;;;;4916642;29;20454;-75
2022/08/03 09:53:18;;;;;;;17.33;16.63;;;40.80;41.40;;;;;;4916289;29;20565;-76
2022/08/03 09:55:51;;;;;;;17.40;16.67;;;40.70;42.50;;;;;;4916869;29;20513;-74
2022/08/03 09:58:20;;;;;;;16.50;15.83;;;41.40;41.30;;;;;;4916404;29;20893;-75
2022/08/03 10:00:56;;;;;;;16.67;16.07;;;42.00;39.40;;;;;;4925461;29;20480;-74
2022/08/03 10:03:23;;;;;;;16.73;16.13;;;41.00;39.20;;;;;;4935218;29;20433;-76
2022/08/03 10:05:50;;;;;;;16.13;15.53;;;40.70;40.90;;;;;;4934609;29;20457;-81
2022/08/03 10:08:18;;;;;;;17.33;16.70;;;40.90;40.80;;;;;;4935178;29;20457;-81
2022/08/03 10:10:46;;;;;;;15.93;15.33;;;40.30;40.60;;;;;;4935556;29;20472;-81
2022/08/03 10:13:15;;;;;;;17.37;16.67;;;40.80;40.20;;;;;;4935271;29;20495;-82
2022/08/03 10:15:42;;;;;;;16.47;15.87;;;41.30;39.20;;;;;;4935188;29;20460;-82
2022/08/03 10:18:10;;;;;;;15.73;15.07;;;41.00;39.30;;;;;;4935240;29;20460;-82
2022/08/03 10:20:44;;;;;;;16.57;15.97;;;41.80;38.20;;;;;;4934801;29;20464;-81
2022/08/03 10:23:11;;;;;;;15.57;15.00;;;41.70;37.80;;;;;;4935243;29;20649;-82
2022/08/03 10:25:39;;;;;;;16.60;16.00;;;40.80;37.40;;;;;;4934924;29;20943;-82
2022/08/03 10:28:07;;;;;;;15.67;15.07;;;40.10;38.70;;;;;;4934994;29;20870;-81
2022/08/03 10:30:36;;;;;;;15.40;14.80;;;40.10;38.50;;;;;;4934805;29;20453;-82
2022/08/03 10:33:07;;;;;;;15.57;15.03;;;39.80;39.30;;;;;;4934759;29;21027;-82
2022/08/03 10:35:40;;;;;;;16.60;16.00;;;40.40;38.90;;;;;;4934814;29;20476;-77
2022/08/03 10:38:18;;;;;;;14.73;14.23;;;39.80;38.00;;;;;;4934815;29;20791;-80
2022/08/03 10:40:46;;;;;;;15.43;14.93;;;39.10;38.70;;;;;;4934805;29;20464;-80
2022/08/03 10:43:19;;;;;;;15.00;14.50;;;38.70;39.40;;;;;;4934942;29;20456;-81
2022/08/03 10:45:46;;;;;;;15.53;14.93;;;38.80;38.90;;;;;;4935105;29;20461;-81
2022/08/03 10:48:14;;;;;;;16.40;15.80;;;38.70;39.30;;;;;;4935246;29;20485;-81
2022/08/03 10:50:43;;;;;;;15.83;15.23;;;38.90;39.30;;;;;;4934591;29;20826;-80
2022/08/03 10:53:09;;;;;;;15.30;14.60;;;39.80;38.50;;;;;;4934829;29;20601;-81
2022/08/03 10:58:48;;;;;;;16.00;15.50;;;40.60;37.00;;;;;;4934707;29;20617;-81
2022/08/03 11:01:15;;;;;;;16.70;16.10;;;39.70;37.70;;;;;;4934793;29;20462;-80
2022/08/03 11:04:17;;;;;;;16.60;16.00;;;40.20;36.60;;;;;;4934749;29;20457;-82
2022/08/03 11:06:47;;;;;;;16.77;16.17;;;40.50;37.00;;;;;;4934643;29;20452;-81
2022/08/03 11:09:18;;;;;;;16.83;16.23;;;40.70;36.10;;;;;;4934795;29;20562;-81
2022/08/03 11:11:47;;;;;;;15.70;15.10;;;40.20;36.70;;;;;;4934251;29;20457;-81
2022/08/03 11:14:16;;;;;;;17.07;16.40;;;39.30;37.90;;;;;;4934369;29;20457;-82
2022/08/03 11:16:46;;;;;;;16.30;15.70;;;39.30;38.70;;;;;;4934432;29;20464;-82
2022/08/03 11:19:15;;;;;;;17.20;16.50;;;39.40;37.70;;;;;;4933527;29;20876;-80
2022/08/03 11:21:59;;;;;;;14.70;14.20;;;38.90;38.20;;;;;;4934068;29;20454;-81
2022/08/03 11:24:58;;;;;;;16.10;15.53;;;38.30;39.30;;;;;;4934043;29;20466;-81
2022/08/03 11:27:26;;;;;;;15.23;14.53;;;38.80;39.30;;;;;;4933954;29;20456;-82
2022/08/03 11:30:03;;;;;;;15.97;15.37;;;40.30;38.00;;;;;;4933996;29;20496;-81
2022/08/03 11:32:57;;;;;;;16.50;15.90;;;41.50;36.40;;;;;;4934075;29;20499;-82
2022/08/03 11:35:25;;;;;;;17.40;16.60;;;42.10;36.00;;;;;;4933618;29;20457;-83
2022/08/03 11:38:08;;;;;;;16.17;15.57;;;41.70;35.70;;;;;;4933974;29;20461;-82
2022/08/03 11:40:37;;;;;;;16.10;15.50;;;40.50;37.30;;;;;;4933757;29;20660;-81
2022/08/03 11:43:04;;;;;;;16.90;16.00;;;40.80;37.00;;;;;;4933860;29;20512;-80
2022/08/03 11:45:31;;;;;;;15.67;15.17;;;41.10;36.50;;;;;;4933599;29;20465;-80
2022/08/03 11:48:02;;;;;;;17.37;16.47;;;41.10;36.50;;;;;;4933998;29;20797;-83
2022/08/03 11:50:36;;;;;;;15.80;15.00;;;41.60;35.90;;;;;;4934157;29;20465;-81
2022/08/03 11:53:04;;;;;;;15.60;15.10;;;41.50;35.60;;;;;;4933678;29;20497;-81
2022/08/03 11:55:33;;;;;;;15.53;14.93;;;41.40;36.40;;;;;;4933499;29;20472;-81
2022/08/03 11:58:00;;;;;;;15.10;14.50;;;40.90;36.70;;;;;;4933496;29;20519;-82
2022/08/03 12:00:29;;;;;;;15.33;14.70;;;39.50;38.40;;;;;;4933101;29;20481;-81
2022/08/03 12:03:01;;;;;;;15.27;14.67;;;39.70;39.20;;;;;;4933380;29;20457;-82
2022/08/03 12:05:40;;;;;;;15.70;15.20;;;40.20;37.60;;;;;;4933596;29;20959;-79
2022/08/03 12:08:08;;;;;;;15.37;14.87;;;40.50;37.50;;;;;;4933220;29;20453;-81
2022/08/03 12:10:37;;;;;;;17.07;16.47;;;40.30;37.10;;;;;;4933099;29;20959;-79
2022/08/03 12:13:07;;;;;;;16.03;15.33;;;40.20;37.50;;;;;;4932940;29;20899;-81
2022/08/03 12:15:35;;;;;;;16.53;15.93;;;39.30;39.10;;;;;;4933211;29;20489;-80
2022/08/03 12:18:03;;;;;;;16.07;15.43;;;39.10;38.60;;;;;;4933119;29;20464;-79
2022/08/03 12:20:32;;;;;;;15.90;15.10;;;38.40;39.40;;;;;;4933211;29;20834;-81
2022/08/03 12:23:04;;;;;;;15.60;15.00;;;37.80;40.60;;;;;;4933311;29;20465;-81
2022/08/03 12:25:31;;;;;;;16.20;15.50;;;37.60;41.40;;;;;;4933048;29;20971;-80
2022/08/03 12:28:18;;;;;;;14.90;14.40;;;38.10;40.60;;;;;;4933564;29;20453;-82
2022/08/03 12:30:48;;;;;;;15.87;15.00;;;38.30;40.60;;;;;;4936449;29;20458;-80
2022/08/03 12:33:21;;;;;;;15.23;14.73;;;37.30;41.10;;;;;;4937451;29;20529;-80
2022/08/03 12:35:50;;;;;;;15.00;14.50;;;37.60;40.50;;;;;;4937162;29;20454;-80
2022/08/03 12:38:23;;;;;;;15.63;15.07;;;37.10;41.20;;;;;;4937029;29;20461;-79
2022/08/03 12:40:58;;;;;;;15.47;14.97;;;37.90;40.60;;;;;;4937026;29;20579;-80
2022/08/03 12:43:26;;;;;;;16.60;15.50;;;38.70;39.50;;;;;;4937207;29;20451;-82
2022/08/03 12:46:10;;;;;;;16.13;15.43;;;38.80;38.70;;;;;;4937394;29;20468;-81
2022/08/03 12:48:37;;;;;;;14.97;14.43;;;38.20;41.00;;;;;;4936839;29;20445;-80
2022/08/03 12:51:09;;;;;;;15.80;15.20;;;37.60;41.00;;;;;;4936887;29;20509;-82
2022/08/03 12:53:36;;;;;;;15.40;14.80;;;37.10;42.00;;;;;;4936989;29;20794;-79
2022/08/03 12:56:04;;;;;;;16.30;15.50;;;37.10;41.70;;;;;;4936544;29;20480;-80
2022/08/03 12:58:34;;;;;;;15.10;14.60;;;37.20;41.80;;;;;;4936317;29;21038;-81
2022/08/03 13:01:01;;;;;;;15.37;14.77;;;36.80;42.30;;;;;;4936709;29;20453;-80
2022/08/03 13:03:28;;;;;;;15.27;14.67;;;37.20;41.50;;;;;;4936968;29;20457;-81
2022/08/03 13:05:56;;;;;;;17.23;16.53;;;38.10;40.60;;;;;;4936683;29;20460;-80
2022/08/03 13:08:24;;;;;;;16.27;15.57;;;39.60;39.10;;;;;;4936673;29;20461;-80
2022/08/03 13:10:51;;;;;;;17.73;16.77;;;40.30;37.90;;;;;;4936335;29;20448;-82
2022/08/03 13:13:19;;;;;;;15.50;14.90;;;39.80;37.70;;;;;;4936255;29;20489;-82
2022/08/03 13:15:47;;;;;;;15.80;15.27;;;38.80;39.00;;;;;;4936693;29;20480;-81
2022/08/03 13:18:14;;;;;;;16.03;15.33;;;38.50;40.10;;;;;;4936644;29;20461;-81
2022/08/03 13:20:42;;;;;;;15.40;14.80;;;38.30;40.20;;;;;;4936470;29;20837;-81
2022/08/03 13:23:09;;;;;;;15.80;14.97;;;39.10;39.20;;;;;;4936527;29;20453;-82
2022/08/03 13:25:36;;;;;;;16.20;15.50;;;39.60;38.30;;;;;;4936048;29;20445;-81
2022/08/03 13:28:05;;;;;;;15.80;15.30;;;39.70;38.50;;;;;;4936384;29;20852;-81
2022/08/03 13:30:31;;;;;;;17.40;16.20;;;39.10;39.10;;;;;;4936336;29;20902;-82
2022/08/03 13:32:59;;;;;;;15.10;14.60;;;38.10;40.20;;;;;;4935839;29;20485;-83
2022/08/03 13:35:26;;;;;;;16.23;15.53;;;37.70;41.10;;;;;;4936067;29;20457;-83
2022/08/03 13:37:53;;;;;;;17.30;16.60;;;38.00;41.00;;;;;;4935726;29;20944;-81
2022/08/03 13:40:20;;;;;;;15.87;15.27;;;38.40;40.30;;;;;;4935684;29;20457;-82
2022/08/03 13:42:46;;;;;;;16.20;15.60;;;38.70;40.10;;;;;;4935258;29;20964;-81
2022/08/03 13:45:13;;;;;;;16.33;15.83;;;38.20;40.30;;;;;;4936091;29;20453;-82
2022/08/03 13:47:40;;;;;;;16.33;15.73;;;38.20;40.80;;;;;;4935979;29;20824;-81
2022/08/03 13:50:08;;;;;;;16.00;15.37;;;38.00;40.40;;;;;;4935552;29;20863;-83
2022/08/03 13:52:36;;;;;;;16.17;15.43;;;38.70;40.20;;;;;;4935663;29;20458;-81
2022/08/03 13:55:05;;;;;;;16.70;15.93;;;39.80;38.70;;;;;;4935680;29;20469;-82
2022/08/03 13:57:32;;;;;;;16.63;16.03;;;40.30;37.90;;;;;;4935625;29;20481;-81
2022/08/03 13:59:59;;;;;;;17.00;16.30;;;40.10;37.40;;;;;;4935844;29;20453;-82
2022/08/03 14:02:25;;;;;;;15.37;14.73;;;39.50;38.10;;;;;;4935500;29;20458;-81
2022/08/03 14:04:53;;;;;;;15.90;15.40;;;38.90;38.90;;;;;;4935322;29;20826;-81
2022/08/03 14:07:21;;;;;;;14.50;14.00;;;38.30;39.20;;;;;;4935579;29;20450;-81
2022/08/03 14:09:48;;;;;;;16.37;15.70;;;38.00;39.50;;;;;;4929782;29;20445;-82
2022/08/03 14:12:15;;;;;;;16.10;15.50;;;37.80;39.70;;;;;;4926573;29;20488;-82
2022/08/03 14:14:41;;;;;;;14.33;13.83;;;37.00;40.60;;;;;;4924802;29;20497;-82
2022/08/03 14:17:08;;;;;;;15.77;15.27;;;36.80;41.20;;;;;;4925152;29;20805;-82
2022/08/03 14:19:35;;;;;;;15.80;15.13;;;36.50;41.70;;;;;;4926310;29;21172;-82
2022/08/03 14:22:02;;;;;;;15.17;14.57;;;36.20;41.90;;;;;;4925074;29;20457;-82
2022/08/03 14:24:30;;;;;;;14.00;13.50;;;37.00;41.30;;;;;;4925407;29;20449;-82
2022/08/03 14:27:00;;;;;;;14.70;14.20;;;36.90;41.10;;;;;;4926261;29;20485;-82
2022/08/03 14:29:27;;;;;;;15.90;15.27;;;37.20;40.70;;;;;;4925238;29;20955;-82
2022/08/03 14:31:54;;;;;;;14.30;13.80;;;37.70;40.00;;;;;;4924630;29;20552;-82
2022/08/03 14:34:20;;;;;;;15.17;14.67;;;37.10;40.40;;;;;;4926511;29;20490;-83
2022/08/03 14:36:47;;;;;;;15.63;15.03;;;37.30;40.70;;;;;;4925576;29;20446;-82
2022/08/03 14:39:14;;;;;;;16.00;15.20;;;37.90;40.40;;;;;;4924364;29;20456;-81
2022/08/03 14:41:42;;;;;;;15.23;14.70;;;38.60;39.30;;;;;;4924779;29;20454;-82
2022/08/03 14:44:09;;;;;;;17.00;16.30;;;39.20;38.80;;;;;;4927257;29;20442;-84
2022/08/03 14:46:36;;;;;;;16.33;15.73;;;39.40;38.80;;;;;;4925912;29;20447;-83
2022/08/03 14:49:04;;;;;;;15.97;15.47;;;39.50;38.50;;;;;;4926207;29;20453;-83
2022/08/03 14:51:30;;;;;;;16.20;15.60;;;39.60;37.90;;;;;;4926470;29;21164;-83
2022/08/03 14:53:57;;;;;;;15.77;15.27;;;39.60;37.60;;;;;;4924648;29;20497;-82
2022/08/03 14:56:24;;;;;;;16.60;16.00;;;39.50;37.40;;;;;;4925647;29;20488;-82
2022/08/03 14:58:52;;;;;;;15.40;14.80;;;39.50;36.50;;;;;;4926693;29;20518;-81
2022/08/03 15:01:19;;;;;;;16.03;15.43;;;38.90;37.20;;;;;;4932357;29;20455;-82
2022/08/03 15:03:47;;;;;;;16.80;16.20;;;37.90;38.20;;;;;;4934944;29;20482;-82
2022/08/03 15:06:14;;;;;;;14.30;13.73;;;36.80;39.20;;;;;;4935248;29;20548;-83
2022/08/03 15:08:41;;;;;;;15.23;14.53;;;35.70;40.30;;;;;;4934849;29;20848;-82
2022/08/03 15:11:08;;;;;;;15.20;14.60;;;35.10;40.70;;;;;;4936421;29;20461;-82
2022/08/03 15:13:35;;;;;;;15.10;14.50;;;34.80;41.60;;;;;;4935622;29;20494;-87
2022/08/03 15:16:04;;;;;;;15.73;14.83;;;34.70;42.20;;;;;;4936175;29;20556;-86